sensor_id;sensor_type;location;lat;lon;timestamp;temperature;humidity
4406;DHT22;2216;53.806;11.598;2023-01-10T00:01:26;6.90;85.40
4406;DHT22;2216;53.806;11.598;2023-01-10T00:03:52;6.90;85.40
4406;DHT22;2216;53.806;11.598;2023-01-10T00:06:18;6.90;85.40
4406;DHT22;2216;53.806;11.598;2023-01-10T00:08:43;6.80;85.30
4406;DHT22;2216;53.806;11.598;2023-01-10T00:11:09;6.90;85.50
4406;DHT22;2216;53.806;11.598;2023-01-10T00:13:54;6.90;85.40
4406;DHT22;2216;53.806;11.598;2023-01-10T00:16:20;6.90;85.40
4406;DHT22;2216;53.806;11.598;2023-01-10T00:18:47;6.90;85.40
4406;DHT22;2216;53.806;11.598;2023-01-10T00:21:12;6.90;85.40
4406;DHT22;2216;53.806;11.598;2023-01-10T00:23:41;6.90;85.40
4406;DHT22;2216;53.806;11.598;2023-01-10T00:26:08;6.90;85.40
4406;DHT22;2216;53.806;11.598;2023-01-10T00:28:33;6.80;85.40
4406;DHT22;2216;53.806;11.598;2023-01-10T00:31:00;6.90;85.40
4406;DHT22;2216;53.806;11.598;2023-01-10T00:33:31;6.90;85.40
4406;DHT22;2216;53.806;11.598;2023-01-10T00:35:58;6.90;85.40
4406;DHT22;2216;53.806;11.598;2023-01-10T00:38:24;6.90;85.40
4406;DHT22;2216;53.806;11.598;2023-01-10T00:40:50;6.90;85.40
4406;DHT22;2216;53.806;11.598;2023-01-10T00:43:16;6.90;85.40
4406;DHT22;2216;53.806;11.598;2023-01-10T00:46:01;6.90;85.40
4406;DHT22;2216;53.806;11.598;2023-01-10T00:48:27;6.90;85.50
4406;DHT22;2216;53.806;11.598;2023-01-10T00:50:53;6.90;85.40
4406;DHT22;2216;53.806;11.598;2023-01-10T00:53:19;6.90;85.40
4406;DHT22;2216;53.806;11.598;2023-01-10T00:55:45;6.90;85.40
4406;DHT22;2216;53.806;11.598;2023-01-10T00:58:12;6.90;85.40
4406;DHT22;2216;53.806;11.598;2023-01-10T01:00:39;6.90;85.40
4406;DHT22;2216;53.806;11.598;2023-01-10T01:03:06;6.90;85.40
4406;DHT22;2216;53.806;11.598;2023-01-10T01:05:32;6.90;85.40
4406;DHT22;2216;53.806;11.598;2023-01-10T01:07:58;6.90;85.40
4406;DHT22;2216;53.806;11.598;2023-01-10T01:10:24;6.90;85.40
4406;DHT22;2216;53.806;11.598;2023-01-10T01:13:08;6.90;85.40
4406;DHT22;2216;53.806;11.598;2023-01-10T01:15:36;6.90;85.40
4406;DHT22;2216;53.806;11.598;2023-01-10T01:18:03;6.90;86.10
4406;DHT22;2216;53.806;11.598;2023-01-10T01:20:29;6.90;85.40
4406;DHT22;2216;53.806;11.598;2023-01-10T01:22:55;6.90;85.40
4406;DHT22;2216;53.806;11.598;2023-01-10T01:25:21;6.90;85.40
4406;DHT22;2216;53.806;11.598;2023-01-10T01:27:47;6.90;85.40
4406;DHT22;2216;53.806;11.598;2023-01-10T01:30:13;6.90;85.40
4406;DHT22;2216;53.806;11.598;2023-01-10T01:32:39;6.90;85.40
4406;DHT22;2216;53.806;11.598;2023-01-10T01:35:06;6.90;85.40
4406;DHT22;2216;53.806;11.598;2023-01-10T01:37:33;6.90;85.40
4406;DHT22;2216;53.806;11.598;2023-01-10T01:39:59;6.90;85.40
4406;DHT22;2216;53.806;11.598;2023-01-10T01:42:28;6.90;85.40
4406;DHT22;2216;53.806;11.598;2023-01-10T01:47:51;6.90;85.20
4406;DHT22;2216;53.806;11.598;2023-01-10T01:58:58;6.70;85.10
4406;DHT22;2216;53.806;11.598;2023-01-10T02:01:27;6.80;85.20
4406;DHT22;2216;53.806;11.598;2023-01-10T02:07:07;6.70;85.20
4406;DHT22;2216;53.806;11.598;2023-01-10T02:09:42;6.70;85.10
4406;DHT22;2216;53.806;11.598;2023-01-10T02:12:11;6.70;85.20
4406;DHT22;2216;53.806;11.598;2023-01-10T02:14:38;6.70;85.10
4406;DHT22;2216;53.806;11.598;2023-01-10T02:17:08;6.70;85.20
4406;DHT22;2216;53.806;11.598;2023-01-10T02:19:51;6.70;85.20
4406;DHT22;2216;53.806;11.598;2023-01-10T02:25:26;6.70;85.30
4406;DHT22;2216;53.806;11.598;2023-01-10T02:31:36;6.70;85.50
4406;DHT22;2216;53.806;11.598;2023-01-10T02:34:32;6.70;85.50
4406;DHT22;2216;53.806;11.598;2023-01-10T02:40:18;6.70;85.60
4406;DHT22;2216;53.806;11.598;2023-01-10T02:43:09;6.70;85.60
4406;DHT22;2216;53.806;11.598;2023-01-10T02:45:46;6.80;85.60
4406;DHT22;2216;53.806;11.598;2023-01-10T02:48:22;6.80;85.60
4406;DHT22;2216;53.806;11.598;2023-01-10T02:53:51;6.80;85.60
4406;DHT22;2216;53.806;11.598;2023-01-10T03:03:01;6.80;85.60
4406;DHT22;2216;53.806;11.598;2023-01-10T03:06:05;6.90;85.70
4406;DHT22;2216;53.806;11.598;2023-01-10T03:09:07;6.80;85.60
4406;DHT22;2216;53.806;11.598;2023-01-10T03:11:40;6.80;85.60
4406;DHT22;2216;53.806;11.598;2023-01-10T03:14:21;6.90;85.70
4406;DHT22;2216;53.806;11.598;2023-01-10T03:16:56;6.90;85.70
4406;DHT22;2216;53.806;11.598;2023-01-10T03:19:29;6.90;85.70
4406;DHT22;2216;53.806;11.598;2023-01-10T03:21:58;6.90;85.70
4406;DHT22;2216;53.806;11.598;2023-01-10T03:24:39;6.90;85.70
4406;DHT22;2216;53.806;11.598;2023-01-10T03:32:40;7.00;85.70
4406;DHT22;2216;53.806;11.598;2023-01-10T03:35:06;7.00;85.70
4406;DHT22;2216;53.806;11.598;2023-01-10T03:37:37;7.00;85.70
4406;DHT22;2216;53.806;11.598;2023-01-10T03:40:59;7.00;85.70
4406;DHT22;2216;53.806;11.598;2023-01-10T03:46:31;7.10;85.80
4406;DHT22;2216;53.806;11.598;2023-01-10T03:49:03;7.00;85.60
4406;DHT22;2216;53.806;11.598;2023-01-10T03:51:30;7.00;85.60
4406;DHT22;2216;53.806;11.598;2023-01-10T03:53:59;7.20;85.90
4406;DHT22;2216;53.806;11.598;2023-01-10T03:56:25;7.10;85.60
4406;DHT22;2216;53.806;11.598;2023-01-10T03:58:51;7.10;85.60
4406;DHT22;2216;53.806;11.598;2023-01-10T04:01:17;7.00;85.50
4406;DHT22;2216;53.806;11.598;2023-01-10T04:03:43;7.10;85.60
4406;DHT22;2216;53.806;11.598;2023-01-10T04:06:09;7.00;85.60
4406;DHT22;2216;53.806;11.598;2023-01-10T04:08:35;7.00;85.50
4406;DHT22;2216;53.806;11.598;2023-01-10T04:11:00;7.10;85.50
4406;DHT22;2216;53.806;11.598;2023-01-10T04:13:26;7.10;85.50
4406;DHT22;2216;53.806;11.598;2023-01-10T04:15:52;7.30;85.60
4406;DHT22;2216;53.806;11.598;2023-01-10T04:18:18;7.10;85.40
4406;DHT22;2216;53.806;11.598;2023-01-10T04:20:44;7.00;85.40
4406;DHT22;2216;53.806;11.598;2023-01-10T04:23:09;7.00;85.40
4406;DHT22;2216;53.806;11.598;2023-01-10T04:25:35;7.00;85.40
4406;DHT22;2216;53.806;11.598;2023-01-10T04:28:01;7.00;85.40
4406;DHT22;2216;53.806;11.598;2023-01-10T04:30:26;7.00;85.40
4406;DHT22;2216;53.806;11.598;2023-01-10T04:32:52;7.00;85.40
4406;DHT22;2216;53.806;11.598;2023-01-10T04:35:18;7.30;85.60
4406;DHT22;2216;53.806;11.598;2023-01-10T04:37:43;7.00;85.50
4406;DHT22;2216;53.806;11.598;2023-01-10T04:40:09;7.00;85.50
4406;DHT22;2216;53.806;11.598;2023-01-10T04:42:35;7.00;85.40
4406;DHT22;2216;53.806;11.598;2023-01-10T04:45:01;7.00;85.50
4406;DHT22;2216;53.806;11.598;2023-01-10T04:47:27;6.80;85.20
4406;DHT22;2216;53.806;11.598;2023-01-10T04:49:53;6.90;85.30
4406;DHT22;2216;53.806;11.598;2023-01-10T04:52:18;7.00;85.30
4406;DHT22;2216;53.806;11.598;2023-01-10T04:54:44;6.90;85.40
4406;DHT22;2216;53.806;11.598;2023-01-10T04:57:10;7.00;85.40
4406;DHT22;2216;53.806;11.598;2023-01-10T04:59:35;6.90;85.40
4406;DHT22;2216;53.806;11.598;2023-01-10T05:02:01;6.90;85.40
4406;DHT22;2216;53.806;11.598;2023-01-10T05:04:27;6.90;85.40
4406;DHT22;2216;53.806;11.598;2023-01-10T05:06:52;6.90;85.40
4406;DHT22;2216;53.806;11.598;2023-01-10T05:09:18;6.90;85.40
4406;DHT22;2216;53.806;11.598;2023-01-10T05:11:44;6.90;85.40
4406;DHT22;2216;53.806;11.598;2023-01-10T05:14:09;6.80;85.30
4406;DHT22;2216;53.806;11.598;2023-01-10T05:16:35;6.90;85.40
4406;DHT22;2216;53.806;11.598;2023-01-10T05:19:01;6.80;85.30
4406;DHT22;2216;53.806;11.598;2023-01-10T05:21:27;6.80;85.30
4406;DHT22;2216;53.806;11.598;2023-01-10T05:23:53;7.00;85.50
4406;DHT22;2216;53.806;11.598;2023-01-10T05:26:20;6.80;85.40
4406;DHT22;2216;53.806;11.598;2023-01-10T05:28:47;6.80;85.50
4406;DHT22;2216;53.806;11.598;2023-01-10T05:31:15;6.80;85.40
4406;DHT22;2216;53.806;11.598;2023-01-10T05:33:50;6.80;85.50
4406;DHT22;2216;53.806;11.598;2023-01-10T05:36:16;6.90;85.60
4406;DHT22;2216;53.806;11.598;2023-01-10T05:38:43;6.80;85.50
4406;DHT22;2216;53.806;11.598;2023-01-10T05:41:09;6.80;85.50
4406;DHT22;2216;53.806;11.598;2023-01-10T05:43:34;6.90;85.60
4406;DHT22;2216;53.806;11.598;2023-01-10T05:46:00;6.90;85.60
4406;DHT22;2216;53.806;11.598;2023-01-10T05:48:26;6.90;85.60
4406;DHT22;2216;53.806;11.598;2023-01-10T05:50:52;6.80;85.50
4406;DHT22;2216;53.806;11.598;2023-01-10T05:53:18;6.90;85.60
4406;DHT22;2216;53.806;11.598;2023-01-10T05:55:58;6.90;85.60
4406;DHT22;2216;53.806;11.598;2023-01-10T05:58:26;6.90;85.60
4406;DHT22;2216;53.806;11.598;2023-01-10T06:00:53;6.90;85.60
4406;DHT22;2216;53.806;11.598;2023-01-10T06:03:19;6.90;85.60
4406;DHT22;2216;53.806;11.598;2023-01-10T06:05:45;6.90;85.60
4406;DHT22;2216;53.806;11.598;2023-01-10T06:08:11;6.90;85.50
4406;DHT22;2216;53.806;11.598;2023-01-10T06:10:37;6.90;85.60
4406;DHT22;2216;53.806;11.598;2023-01-10T06:13:02;6.90;85.60
4406;DHT22;2216;53.806;11.598;2023-01-10T06:15:29;6.90;85.60
4406;DHT22;2216;53.806;11.598;2023-01-10T06:17:55;6.90;85.60
4406;DHT22;2216;53.806;11.598;2023-01-10T06:20:21;6.90;85.60
4406;DHT22;2216;53.806;11.598;2023-01-10T06:22:47;6.80;85.50
4406;DHT22;2216;53.806;11.598;2023-01-10T06:25:13;6.90;85.60
4406;DHT22;2216;53.806;11.598;2023-01-10T06:27:39;6.90;85.60
4406;DHT22;2216;53.806;11.598;2023-01-10T06:30:07;6.90;85.60
4406;DHT22;2216;53.806;11.598;2023-01-10T06:32:34;6.90;85.60
4406;DHT22;2216;53.806;11.598;2023-01-10T06:35:00;6.90;85.60
4406;DHT22;2216;53.806;11.598;2023-01-10T06:37:25;6.90;85.50
4406;DHT22;2216;53.806;11.598;2023-01-10T06:39:51;6.90;85.50
4406;DHT22;2216;53.806;11.598;2023-01-10T06:42:17;6.90;85.50
4406;DHT22;2216;53.806;11.598;2023-01-10T06:44:42;6.90;85.50
4406;DHT22;2216;53.806;11.598;2023-01-10T06:47:08;6.80;85.50
4406;DHT22;2216;53.806;11.598;2023-01-10T06:49:34;6.90;85.50
4406;DHT22;2216;53.806;11.598;2023-01-10T06:52:00;6.90;86.20
4406;DHT22;2216;53.806;11.598;2023-01-10T06:54:25;6.90;85.50
4406;DHT22;2216;53.806;11.598;2023-01-10T06:56:51;6.90;85.50
4406;DHT22;2216;53.806;11.598;2023-01-10T06:59:16;6.90;85.50
4406;DHT22;2216;53.806;11.598;2023-01-10T07:01:42;6.90;85.50
4406;DHT22;2216;53.806;11.598;2023-01-10T07:04:08;6.90;85.50
4406;DHT22;2216;53.806;11.598;2023-01-10T07:06:37;6.90;85.50
4406;DHT22;2216;53.806;11.598;2023-01-10T07:09:04;6.90;85.50
4406;DHT22;2216;53.806;11.598;2023-01-10T07:11:31;6.80;85.50
4406;DHT22;2216;53.806;11.598;2023-01-10T07:13:58;6.90;85.50
4406;DHT22;2216;53.806;11.598;2023-01-10T07:16:24;6.90;85.50
4406;DHT22;2216;53.806;11.598;2023-01-10T07:18:51;6.90;85.50
4406;DHT22;2216;53.806;11.598;2023-01-10T07:21:16;6.90;85.50
4406;DHT22;2216;53.806;11.598;2023-01-10T07:23:46;6.80;85.40
4406;DHT22;2216;53.806;11.598;2023-01-10T07:26:14;6.80;85.40
4406;DHT22;2216;53.806;11.598;2023-01-10T07:28:42;6.80;85.40
4406;DHT22;2216;53.806;11.598;2023-01-10T07:31:09;6.80;85.50
4406;DHT22;2216;53.806;11.598;2023-01-10T07:33:35;6.80;85.50
4406;DHT22;2216;53.806;11.598;2023-01-10T07:36:02;6.80;85.50
4406;DHT22;2216;53.806;11.598;2023-01-10T07:38:28;6.80;85.50
4406;DHT22;2216;53.806;11.598;2023-01-10T07:40:54;6.80;85.50
4406;DHT22;2216;53.806;11.598;2023-01-10T07:43:20;6.80;85.50
4406;DHT22;2216;53.806;11.598;2023-01-10T07:45:45;6.80;85.50
4406;DHT22;2216;53.806;11.598;2023-01-10T07:48:11;6.80;85.50
4406;DHT22;2216;53.806;11.598;2023-01-10T07:50:37;6.80;85.50
4406;DHT22;2216;53.806;11.598;2023-01-10T07:53:05;6.80;85.40
4406;DHT22;2216;53.806;11.598;2023-01-10T07:55:32;6.90;85.50
4406;DHT22;2216;53.806;11.598;2023-01-10T07:58:00;6.80;85.40
4406;DHT22;2216;53.806;11.598;2023-01-10T08:00:26;6.80;85.40
4406;DHT22;2216;53.806;11.598;2023-01-10T08:02:53;6.80;85.60
4406;DHT22;2216;53.806;11.598;2023-01-10T08:05:19;6.80;85.40
4406;DHT22;2216;53.806;11.598;2023-01-10T08:07:45;6.70;86.10
4406;DHT22;2216;53.806;11.598;2023-01-10T08:10:11;6.80;85.40
4406;DHT22;2216;53.806;11.598;2023-01-10T08:12:36;6.80;85.40
4406;DHT22;2216;53.806;11.598;2023-01-10T08:15:02;6.90;85.50
4406;DHT22;2216;53.806;11.598;2023-01-10T08:17:31;6.70;85.40
4406;DHT22;2216;53.806;11.598;2023-01-10T08:19:57;6.70;85.40
4406;DHT22;2216;53.806;11.598;2023-01-10T08:22:23;6.70;85.40
4406;DHT22;2216;53.806;11.598;2023-01-10T08:24:48;6.70;85.40
4406;DHT22;2216;53.806;11.598;2023-01-10T08:27:14;6.70;85.40
4406;DHT22;2216;53.806;11.598;2023-01-10T08:29:40;6.90;85.50
4406;DHT22;2216;53.806;11.598;2023-01-10T08:32:07;6.70;85.40
4406;DHT22;2216;53.806;11.598;2023-01-10T08:34:33;6.60;85.30
4406;DHT22;2216;53.806;11.598;2023-01-10T08:36:58;6.60;85.30
4406;DHT22;2216;53.806;11.598;2023-01-10T08:39:24;6.80;85.40
4406;DHT22;2216;53.806;11.598;2023-01-10T08:41:52;6.60;85.30
4406;DHT22;2216;53.806;11.598;2023-01-10T08:44:18;6.60;85.30
4406;DHT22;2216;53.806;11.598;2023-01-10T08:46:44;6.60;85.30
4406;DHT22;2216;53.806;11.598;2023-01-10T08:49:10;6.60;85.40
4406;DHT22;2216;53.806;11.598;2023-01-10T08:51:36;6.70;85.50
4406;DHT22;2216;53.806;11.598;2023-01-10T08:54:01;6.50;85.40
4406;DHT22;2216;53.806;11.598;2023-01-10T08:56:27;6.60;86.30
4406;DHT22;2216;53.806;11.598;2023-01-10T08:58:53;6.60;85.70
4406;DHT22;2216;53.806;11.598;2023-01-10T09:01:19;6.60;85.70
4406;DHT22;2216;53.806;11.598;2023-01-10T09:03:44;6.60;85.70
4406;DHT22;2216;53.806;11.598;2023-01-10T09:06:10;6.70;85.80
4406;DHT22;2216;53.806;11.598;2023-01-10T09:08:36;6.60;85.70
4406;DHT22;2216;53.806;11.598;2023-01-10T09:11:03;6.70;85.80
4406;DHT22;2216;53.806;11.598;2023-01-10T09:13:29;6.70;85.80
4406;DHT22;2216;53.806;11.598;2023-01-10T09:15:56;6.70;85.80
4406;DHT22;2216;53.806;11.598;2023-01-10T09:18:22;6.70;85.80
4406;DHT22;2216;53.806;11.598;2023-01-10T09:20:49;6.80;85.90
4406;DHT22;2216;53.806;11.598;2023-01-10T09:23:18;6.70;85.80
4406;DHT22;2216;53.806;11.598;2023-01-10T09:25:52;6.80;86.00
4406;DHT22;2216;53.806;11.598;2023-01-10T09:28:20;6.80;86.00
4406;DHT22;2216;53.806;11.598;2023-01-10T09:30:48;6.80;85.90
4406;DHT22;2216;53.806;11.598;2023-01-10T09:33:14;6.80;85.90
4406;DHT22;2216;53.806;11.598;2023-01-10T09:35:41;6.90;86.00
4406;DHT22;2216;53.806;11.598;2023-01-10T09:38:10;6.90;86.00
4406;DHT22;2216;53.806;11.598;2023-01-10T09:41:16;7.10;86.10
4406;DHT22;2216;53.806;11.598;2023-01-10T09:46:50;6.90;86.00
4406;DHT22;2216;53.806;11.598;2023-01-10T09:52:24;6.90;85.90
4406;DHT22;2216;53.806;11.598;2023-01-10T09:54:55;7.00;86.00
4406;DHT22;2216;53.806;11.598;2023-01-10T09:57:23;7.00;86.10
4406;DHT22;2216;53.806;11.598;2023-01-10T09:59:51;7.00;86.10
4406;DHT22;2216;53.806;11.598;2023-01-10T10:02:37;7.10;86.20
4406;DHT22;2216;53.806;11.598;2023-01-10T10:05:26;7.10;86.10
4406;DHT22;2216;53.806;11.598;2023-01-10T10:07:56;7.10;86.10
4406;DHT22;2216;53.806;11.598;2023-01-10T10:10:25;7.10;86.00
4406;DHT22;2216;53.806;11.598;2023-01-10T10:13:20;7.10;86.00
4406;DHT22;2216;53.806;11.598;2023-01-10T10:21:39;7.30;86.40
4406;DHT22;2216;53.806;11.598;2023-01-10T10:27:39;7.50;86.60
4406;DHT22;2216;53.806;11.598;2023-01-10T10:30:25;7.50;86.50
4406;DHT22;2216;53.806;11.598;2023-01-10T10:33:04;7.60;86.50
4406;DHT22;2216;53.806;11.598;2023-01-10T10:35:41;7.60;86.30
4406;DHT22;2216;53.806;11.598;2023-01-10T10:38:31;7.60;86.20
4406;DHT22;2216;53.806;11.598;2023-01-10T10:41:00;7.60;86.20
4406;DHT22;2216;53.806;11.598;2023-01-10T10:43:32;7.70;86.30
4406;DHT22;2216;53.806;11.598;2023-01-10T10:46:07;7.70;86.40
4406;DHT22;2216;53.806;11.598;2023-01-10T10:51:41;7.90;86.70
4406;DHT22;2216;53.806;11.598;2023-01-10T10:54:12;7.90;86.60
4406;DHT22;2216;53.806;11.598;2023-01-10T10:56:39;8.10;86.60
4406;DHT22;2216;53.806;11.598;2023-01-10T10:59:05;8.00;86.40
4406;DHT22;2216;53.806;11.598;2023-01-10T11:01:31;8.00;86.30
4406;DHT22;2216;53.806;11.598;2023-01-10T11:04:00;8.00;86.20
4406;DHT22;2216;53.806;11.598;2023-01-10T11:06:32;8.10;86.10
4406;DHT22;2216;53.806;11.598;2023-01-10T11:09:02;8.10;86.00
4406;DHT22;2216;53.806;11.598;2023-01-10T11:11:32;8.10;86.00
4406;DHT22;2216;53.806;11.598;2023-01-10T11:14:03;8.10;86.00
4406;DHT22;2216;53.806;11.598;2023-01-10T11:16:33;8.10;86.00
4406;DHT22;2216;53.806;11.598;2023-01-10T11:19:21;8.10;85.90
4406;DHT22;2216;53.806;11.598;2023-01-10T11:21:52;8.10;85.90
4406;DHT22;2216;53.806;11.598;2023-01-10T11:24:25;8.20;86.00
4406;DHT22;2216;53.806;11.598;2023-01-10T11:26:54;8.20;86.00
4406;DHT22;2216;53.806;11.598;2023-01-10T11:29:24;8.20;86.00
4406;DHT22;2216;53.806;11.598;2023-01-10T11:31:53;8.20;85.90
4406;DHT22;2216;53.806;11.598;2023-01-10T11:34:29;8.20;85.80
4406;DHT22;2216;53.806;11.598;2023-01-10T11:37:01;8.20;85.80
4406;DHT22;2216;53.806;11.598;2023-01-10T11:39:41;8.20;85.70
4406;DHT22;2216;53.806;11.598;2023-01-10T11:42:39;8.20;85.60
4406;DHT22;2216;53.806;11.598;2023-01-10T11:50:42;8.10;85.40
4406;DHT22;2216;53.806;11.598;2023-01-10T11:56:10;8.10;85.40
4406;DHT22;2216;53.806;11.598;2023-01-10T11:58:37;8.10;85.40
4406;DHT22;2216;53.806;11.598;2023-01-10T12:01:04;8.00;85.40
4406;DHT22;2216;53.806;11.598;2023-01-10T12:03:32;8.10;85.50
4406;DHT22;2216;53.806;11.598;2023-01-10T12:06:12;8.00;85.40
4406;DHT22;2216;53.806;11.598;2023-01-10T12:08:40;8.00;85.40
4406;DHT22;2216;53.806;11.598;2023-01-10T12:13:59;8.00;85.50
4406;DHT22;2216;53.806;11.598;2023-01-10T12:16:32;8.00;85.60
4406;DHT22;2216;53.806;11.598;2023-01-10T12:19:01;8.00;85.50
4406;DHT22;2216;53.806;11.598;2023-01-10T12:21:39;8.00;85.50
4406;DHT22;2216;53.806;11.598;2023-01-10T12:24:20;8.00;85.60
4406;DHT22;2216;53.806;11.598;2023-01-10T12:27:08;8.00;85.60
4406;DHT22;2216;53.806;11.598;2023-01-10T12:29:42;8.00;85.60
4406;DHT22;2216;53.806;11.598;2023-01-10T12:32:27;8.00;85.60
4406;DHT22;2216;53.806;11.598;2023-01-10T12:35:03;8.00;85.60
4406;DHT22;2216;53.806;11.598;2023-01-10T12:37:47;8.00;85.60
4406;DHT22;2216;53.806;11.598;2023-01-10T12:40:46;8.00;85.60
4406;DHT22;2216;53.806;11.598;2023-01-10T12:43:36;7.90;85.50
4406;DHT22;2216;53.806;11.598;2023-01-10T12:46:37;8.00;85.60
4406;DHT22;2216;53.806;11.598;2023-01-10T12:49:18;8.00;85.60
4406;DHT22;2216;53.806;11.598;2023-01-10T12:52:14;8.00;85.60
4406;DHT22;2216;53.806;11.598;2023-01-10T12:54:56;8.00;85.60
4406;DHT22;2216;53.806;11.598;2023-01-10T12:57:41;8.00;85.60
4406;DHT22;2216;53.806;11.598;2023-01-10T13:00:21;8.00;85.60
4406;DHT22;2216;53.806;11.598;2023-01-10T13:02:54;7.90;85.50
4406;DHT22;2216;53.806;11.598;2023-01-10T13:05:27;7.80;85.50
4406;DHT22;2216;53.806;11.598;2023-01-10T13:08:15;7.90;85.50
4406;DHT22;2216;53.806;11.598;2023-01-10T13:10:44;7.90;85.50
4406;DHT22;2216;53.806;11.598;2023-01-10T13:13:34;7.90;85.30
4406;DHT22;2216;53.806;11.598;2023-01-10T13:21:36;7.90;85.30
4406;DHT22;2216;53.806;11.598;2023-01-10T13:24:18;7.90;85.40
4406;DHT22;2216;53.806;11.598;2023-01-10T13:29:25;7.80;85.30
4406;DHT22;2216;53.806;11.598;2023-01-10T13:31:59;7.90;85.50
4406;DHT22;2216;53.806;11.598;2023-01-10T13:34:32;7.80;85.40
4406;DHT22;2216;53.806;11.598;2023-01-10T13:37:09;7.80;85.40
4406;DHT22;2216;53.806;11.598;2023-01-10T13:39:38;7.80;85.40
4406;DHT22;2216;53.806;11.598;2023-01-10T13:45:17;7.80;85.50
4406;DHT22;2216;53.806;11.598;2023-01-10T14:01:31;7.80;85.30
4406;DHT22;2216;53.806;11.598;2023-01-10T14:04:30;7.80;85.30
4406;DHT22;2216;53.806;11.598;2023-01-10T14:07:04;7.80;85.30
4406;DHT22;2216;53.806;11.598;2023-01-10T14:09:48;7.80;85.30
4406;DHT22;2216;53.806;11.598;2023-01-10T14:12:25;7.80;85.30
4406;DHT22;2216;53.806;11.598;2023-01-10T14:18:00;7.80;85.40
4406;DHT22;2216;53.806;11.598;2023-01-10T14:20:29;7.80;85.30
4406;DHT22;2216;53.806;11.598;2023-01-10T14:25:44;7.70;85.20
4406;DHT22;2216;53.806;11.598;2023-01-10T14:28:22;7.70;85.30
4406;DHT22;2216;53.806;11.598;2023-01-10T14:31:02;7.70;85.30
4406;DHT22;2216;53.806;11.598;2023-01-10T14:33:29;7.70;85.30
4406;DHT22;2216;53.806;11.598;2023-01-10T14:36:00;7.70;85.30
4406;DHT22;2216;53.806;11.598;2023-01-10T14:38:36;7.60;85.20
4406;DHT22;2216;53.806;11.598;2023-01-10T14:41:12;7.60;85.30
4406;DHT22;2216;53.806;11.598;2023-01-10T14:43:54;7.60;85.20
4406;DHT22;2216;53.806;11.598;2023-01-10T14:46:28;7.60;85.20
4406;DHT22;2216;53.806;11.598;2023-01-10T14:48:55;7.60;85.30
4406;DHT22;2216;53.806;11.598;2023-01-10T14:51:26;7.60;85.30
4406;DHT22;2216;53.806;11.598;2023-01-10T14:54:10;7.60;85.30
4406;DHT22;2216;53.806;11.598;2023-01-10T14:56:51;7.60;86.00
4406;DHT22;2216;53.806;11.598;2023-01-10T15:02:15;7.50;85.20
4406;DHT22;2216;53.806;11.598;2023-01-10T15:04:58;7.50;85.20
4406;DHT22;2216;53.806;11.598;2023-01-10T15:07:31;7.50;85.20
4406;DHT22;2216;53.806;11.598;2023-01-10T15:09:58;7.40;85.20
4406;DHT22;2216;53.806;11.598;2023-01-10T15:12:28;7.50;85.30
4406;DHT22;2216;53.806;11.598;2023-01-10T15:15:02;7.40;85.20
4406;DHT22;2216;53.806;11.598;2023-01-10T15:17:30;7.40;85.30
4406;DHT22;2216;53.806;11.598;2023-01-10T15:19:56;7.40;85.30
4406;DHT22;2216;53.806;11.598;2023-01-10T15:22:34;7.40;85.30
4406;DHT22;2216;53.806;11.598;2023-01-10T15:25:05;7.40;85.30
4406;DHT22;2216;53.806;11.598;2023-01-10T15:27:51;7.30;85.20
4406;DHT22;2216;53.806;11.598;2023-01-10T15:30:29;7.20;85.20
4406;DHT22;2216;53.806;11.598;2023-01-10T15:33:00;7.30;85.30
4406;DHT22;2216;53.806;11.598;2023-01-10T15:35:29;7.30;85.30
4406;DHT22;2216;53.806;11.598;2023-01-10T15:38:07;7.30;85.30
4406;DHT22;2216;53.806;11.598;2023-01-10T15:40:38;7.30;85.30
4406;DHT22;2216;53.806;11.598;2023-01-10T15:45:46;7.30;85.30
4406;DHT22;2216;53.806;11.598;2023-01-10T15:48:28;7.30;85.30
4406;DHT22;2216;53.806;11.598;2023-01-10T15:50:57;7.30;85.40
4406;DHT22;2216;53.806;11.598;2023-01-10T15:56:19;7.30;85.40
4406;DHT22;2216;53.806;11.598;2023-01-10T15:58:49;7.30;85.30
4406;DHT22;2216;53.806;11.598;2023-01-10T16:01:15;7.30;85.40
4406;DHT22;2216;53.806;11.598;2023-01-10T16:03:50;7.40;85.40
4406;DHT22;2216;53.806;11.598;2023-01-10T16:06:32;7.30;85.40
4406;DHT22;2216;53.806;11.598;2023-01-10T16:09:01;7.40;85.50
4406;DHT22;2216;53.806;11.598;2023-01-10T16:11:39;7.20;85.40
4406;DHT22;2216;53.806;11.598;2023-01-10T16:14:29;7.20;85.40
4406;DHT22;2216;53.806;11.598;2023-01-10T16:16:55;7.40;85.50
4406;DHT22;2216;53.806;11.598;2023-01-10T16:19:21;7.10;85.30
4406;DHT22;2216;53.806;11.598;2023-01-10T16:21:52;7.20;85.40
4406;DHT22;2216;53.806;11.598;2023-01-10T16:24:25;7.20;85.40
4406;DHT22;2216;53.806;11.598;2023-01-10T16:26:57;7.20;85.40
4406;DHT22;2216;53.806;11.598;2023-01-10T16:29:25;7.20;85.50
4406;DHT22;2216;53.806;11.598;2023-01-10T16:31:51;7.20;85.40
4406;DHT22;2216;53.806;11.598;2023-01-10T16:34:18;7.20;85.40
4406;DHT22;2216;53.806;11.598;2023-01-10T16:36:44;7.10;85.40
4406;DHT22;2216;53.806;11.598;2023-01-10T16:39:19;7.20;85.40
4406;DHT22;2216;53.806;11.598;2023-01-10T16:41:46;7.20;85.40
4406;DHT22;2216;53.806;11.598;2023-01-10T16:44:32;7.20;85.50
4406;DHT22;2216;53.806;11.598;2023-01-10T16:46:58;7.20;85.40
4406;DHT22;2216;53.806;11.598;2023-01-10T16:49:25;7.20;85.40
4406;DHT22;2216;53.806;11.598;2023-01-10T16:51:50;7.30;85.50
4406;DHT22;2216;53.806;11.598;2023-01-10T16:54:21;7.20;85.50
4406;DHT22;2216;53.806;11.598;2023-01-10T16:56:49;7.20;85.50
4406;DHT22;2216;53.806;11.598;2023-01-10T16:59:15;7.30;85.50
4406;DHT22;2216;53.806;11.598;2023-01-10T17:01:56;7.20;85.50
4406;DHT22;2216;53.806;11.598;2023-01-10T17:04:27;7.30;85.50
4406;DHT22;2216;53.806;11.598;2023-01-10T17:06:59;7.10;85.40
4406;DHT22;2216;53.806;11.598;2023-01-10T17:09:27;7.20;85.50
4406;DHT22;2216;53.806;11.598;2023-01-10T17:12:01;7.20;85.50
4406;DHT22;2216;53.806;11.598;2023-01-10T17:14:33;7.20;85.50
4406;DHT22;2216;53.806;11.598;2023-01-10T17:17:00;7.20;85.50
4406;DHT22;2216;53.806;11.598;2023-01-10T17:19:26;7.20;85.50
4406;DHT22;2216;53.806;11.598;2023-01-10T17:21:51;7.20;85.40
4406;DHT22;2216;53.806;11.598;2023-01-10T17:24:17;7.00;85.40
4406;DHT22;2216;53.806;11.598;2023-01-10T17:26:43;7.20;85.50
4406;DHT22;2216;53.806;11.598;2023-01-10T17:29:09;7.20;85.50
4406;DHT22;2216;53.806;11.598;2023-01-10T17:31:35;7.20;85.50
4406;DHT22;2216;53.806;11.598;2023-01-10T17:34:00;7.20;85.50
4406;DHT22;2216;53.806;11.598;2023-01-10T17:36:26;7.10;85.40
4406;DHT22;2216;53.806;11.598;2023-01-10T17:38:55;7.10;85.50
4406;DHT22;2216;53.806;11.598;2023-01-10T17:41:21;7.10;85.40
4406;DHT22;2216;53.806;11.598;2023-01-10T17:43:46;7.10;85.40
4406;DHT22;2216;53.806;11.598;2023-01-10T17:46:12;7.10;85.30
4406;DHT22;2216;53.806;11.598;2023-01-10T17:48:40;7.10;85.30
4406;DHT22;2216;53.806;11.598;2023-01-10T17:51:06;7.10;85.20
4406;DHT22;2216;53.806;11.598;2023-01-10T17:53:33;7.00;85.20
4406;DHT22;2216;53.806;11.598;2023-01-10T17:55:59;7.00;85.20
4406;DHT22;2216;53.806;11.598;2023-01-10T17:58:26;7.00;85.10
4406;DHT22;2216;53.806;11.598;2023-01-10T18:00:52;7.00;85.10
4406;DHT22;2216;53.806;11.598;2023-01-10T18:03:18;7.00;85.20
4406;DHT22;2216;53.806;11.598;2023-01-10T18:05:56;7.00;85.10
4406;DHT22;2216;53.806;11.598;2023-01-10T18:08:23;7.00;85.10
4406;DHT22;2216;53.806;11.598;2023-01-10T18:10:51;7.00;85.10
4406;DHT22;2216;53.806;11.598;2023-01-10T18:13:23;6.90;85.10
4406;DHT22;2216;53.806;11.598;2023-01-10T18:15:49;6.90;85.10